createdAt,value
2018-07-13T00:00:32.540Z,91.13
2018-07-13T00:03:01.951Z,91.13
2018-07-13T00:05:31.315Z,91.25
2018-07-13T00:08:00.766Z,91.53
2018-07-13T00:10:30.074Z,92.25
2018-07-13T00:12:59.514Z,91.94
2018-07-13T00:15:29.048Z,92.89
2018-07-13T00:17:58.470Z,92.87
2018-07-13T00:20:27.898Z,92.96
2018-07-13T00:22:57.209Z,93.75
2018-07-13T00:25:26.688Z,94.26
2018-07-13T00:27:55.946Z,94.54
2018-07-13T00:30:25.493Z,94.90
2018-07-13T00:32:54.861Z,94.89
2018-07-13T00:35:24.354Z,95.04
2018-07-13T00:37:54.015Z,95.79
2018-07-13T00:40:23.534Z,96.32
2018-07-13T00:42:52.925Z,96.75
2018-07-13T00:45:22.207Z,97.11
2018-07-13T00:47:51.659Z,97.23
2018-07-13T00:50:21.390Z,97.45
2018-07-13T00:52:50.901Z,98.21
2018-07-13T00:55:21.369Z,98.24
2018-07-13T00:57:50.932Z,98.71
2018-07-13T01:00:31.589Z,99.75
2018-07-13T01:03:02.654Z,99.69
2018-07-13T01:05:32.614Z,100.00
2018-07-13T01:08:01.897Z,100.00
2018-07-13T01:10:31.338Z,100.00
2018-07-13T01:13:00.886Z,100.00
2018-07-13T01:15:30.187Z,100.00
2018-07-13T01:17:59.454Z,100.00
2018-07-13T01:20:28.887Z,100.00
2018-07-13T01:22:58.281Z,100.00
2018-07-13T01:25:27.860Z,100.00
2018-07-13T01:27:57.251Z,100.00
2018-07-13T01:30:26.559Z,100.00
2018-07-13T01:32:55.991Z,100.00
2018-07-13T01:35:25.522Z,100.00
2018-07-13T01:37:55.668Z,100.00
2018-07-13T01:40:25.179Z,100.00
2018-07-13T01:42:54.613Z,100.00
2018-07-13T01:45:25.244Z,100.00
2018-07-13T01:47:54.725Z,100.00
2018-07-13T01:50:24.340Z,100.00
2018-07-13T01:52:54.085Z,100.00
2018-07-13T01:55:23.399Z,100.00
2018-07-13T01:57:52.876Z,100.00
2018-07-13T02:00:22.269Z,100.00
2018-07-13T02:02:51.732Z,100.00
2018-07-13T02:05:21.210Z,100.00
2018-07-13T02:07:50.665Z,100.00
2018-07-13T02:10:20.094Z,100.00
2018-07-13T02:12:49.625Z,100.00
2018-07-13T02:15:19.237Z,100.00
2018-07-13T02:17:48.902Z,100.00
2018-07-13T02:20:18.448Z,100.00
2018-07-13T02:22:47.898Z,100.00
2018-07-13T02:25:17.319Z,100.00
2018-07-13T02:27:46.772Z,100.00
2018-07-13T02:30:16.252Z,100.00
2018-07-13T02:32:45.733Z,100.00
2018-07-13T02:35:15.137Z,100.00
2018-07-13T02:37:44.576Z,100.00
2018-07-13T02:40:14.117Z,100.00
2018-07-13T02:42:43.657Z,100.00
2018-07-13T02:45:13.269Z,100.00
2018-07-13T02:47:42.742Z,100.00
2018-07-13T02:50:12.170Z,100.00
2018-07-13T02:52:41.570Z,100.00
2018-07-13T02:55:11.033Z,100.00
2018-07-13T02:57:40.461Z,100.00
2018-07-13T03:00:09.876Z,100.00
2018-07-13T03:02:39.305Z,100.00
2018-07-13T03:05:09.141Z,100.00
2018-07-13T03:07:38.654Z,100.00
2018-07-13T03:10:08.135Z,100.00
2018-07-13T03:12:37.719Z,100.00
2018-07-13T03:15:07.388Z,100.00
2018-07-13T03:17:37.005Z,100.00
2018-07-13T03:20:06.574Z,100.00
2018-07-13T03:22:36.201Z,100.00
2018-07-13T03:25:05.822Z,100.00
2018-07-13T03:27:35.141Z,100.00
2018-07-13T03:30:04.605Z,100.00
2018-07-13T03:32:34.023Z,100.00
2018-07-13T03:35:03.756Z,100.00
2018-07-13T03:37:33.079Z,100.00
2018-07-13T03:40:02.778Z,100.00
2018-07-13T03:42:32.247Z,100.00
2018-07-13T03:45:01.676Z,100.00
2018-07-13T03:47:31.318Z,100.00
2018-07-13T03:50:00.793Z,100.00
2018-07-13T03:52:30.408Z,100.00
2018-07-13T03:54:59.933Z,100.00
2018-07-13T03:57:29.421Z,100.00
2018-07-13T03:59:58.912Z,100.00
2018-07-13T04:02:28.359Z,100.00
2018-07-13T04:04:57.735Z,100.00
2018-07-13T04:07:27.367Z,100.00
2018-07-13T04:09:57.264Z,100.00
2018-07-13T04:12:26.857Z,100.00
2018-07-13T04:14:56.288Z,100.00
2018-07-13T04:17:26.329Z,100.00
2018-07-13T04:19:55.727Z,100.00
2018-07-13T04:22:25.419Z,100.00
2018-07-13T04:24:55.176Z,100.00
2018-07-13T04:27:25.224Z,100.00
2018-07-13T04:29:56.342Z,100.00
2018-07-13T04:32:25.822Z,100.00
2018-07-13T04:34:55.437Z,100.00
2018-07-13T04:37:25.917Z,100.00
2018-07-13T04:39:55.352Z,100.00
2018-07-13T04:42:24.748Z,100.00
2018-07-13T04:44:54.189Z,100.00
2018-07-13T04:47:24.540Z,100.00
2018-07-13T04:49:54.239Z,100.00
2018-07-13T04:52:23.898Z,100.00
2018-07-13T04:54:53.501Z,100.00
2018-07-13T04:57:23.080Z,100.00
2018-07-13T04:59:52.833Z,100.00
2018-07-13T05:02:22.334Z,100.00
2018-07-13T05:04:52.007Z,100.00
2018-07-13T05:07:22.736Z,100.00
2018-07-13T05:09:52.254Z,100.00
2018-07-13T05:12:22.107Z,100.00
2018-07-13T05:14:51.979Z,100.00
2018-07-13T05:17:21.672Z,100.00
2018-07-13T05:19:51.221Z,100.00
2018-07-13T05:22:20.909Z,100.00
2018-07-13T05:24:51.516Z,100.00
2018-07-13T05:27:20.935Z,100.00
2018-07-13T05:29:50.703Z,100.00
2018-07-13T05:32:20.457Z,100.00
2018-07-13T05:34:50.165Z,100.00
2018-07-13T05:37:19.808Z,100.00
2018-07-13T05:39:50.547Z,100.00
2018-07-13T05:42:20.064Z,100.00
2018-07-13T05:44:49.877Z,100.00
2018-07-13T05:47:19.589Z,100.00
2018-07-13T05:49:49.218Z,100.00
2018-07-13T05:52:18.760Z,100.00
2018-07-13T05:54:48.532Z,100.00
2018-07-13T05:57:18.032Z,100.00
2018-07-13T05:59:47.744Z,100.00
2018-07-13T06:02:17.217Z,100.00
2018-07-13T06:05:18.320Z,100.00
2018-07-13T06:07:47.821Z,100.00
2018-07-13T06:10:17.536Z,100.00
2018-07-13T06:12:47.246Z,100.00
2018-07-13T06:15:16.742Z,100.00
2018-07-13T06:17:46.552Z,100.00
2018-07-13T06:20:16.207Z,100.00
2018-07-13T06:22:45.756Z,100.00
2018-07-13T06:25:15.177Z,99.14
2018-07-13T06:27:44.615Z,98.21
2018-07-13T06:30:14.319Z,97.35
2018-07-13T06:32:43.649Z,96.36
2018-07-13T06:35:13.327Z,95.58
2018-07-13T06:37:42.941Z,95.04
2018-07-13T06:40:12.642Z,93.56
2018-07-13T06:42:42.133Z,93.71
2018-07-13T06:45:12.047Z,92.89
2018-07-13T06:47:41.602Z,93.37
2018-07-13T06:50:11.112Z,92.02
2018-07-13T06:52:40.791Z,91.45
2018-07-13T06:55:10.919Z,91.48
2018-07-13T06:57:51.175Z,89.23
2018-07-13T07:01:10.833Z,90.87
2018-07-13T07:04:49.912Z,90.32
2018-07-13T07:07:25.453Z,89.63
2018-07-13T07:09:58.153Z,89.72
2018-07-13T07:13:06.481Z,89.47
2018-07-13T07:15:36.211Z,88.29
2018-07-13T07:18:05.820Z,88.04
2018-07-13T07:20:35.283Z,86.96
2018-07-13T07:23:04.806Z,87.14
2018-07-13T07:25:34.560Z,86.14
2018-07-13T07:28:04.093Z,84.97
2018-07-13T07:30:34.056Z,84.91
2018-07-13T07:33:04.291Z,85.40
2018-07-13T07:35:35.252Z,83.98
2018-07-13T07:38:05.165Z,81.25
2018-07-13T07:40:35.170Z,82.92
2018-07-13T07:43:05.410Z,81.07
2018-07-13T07:45:35.161Z,81.42
2018-07-13T07:48:04.988Z,80.06
2018-07-13T07:50:37.506Z,79.70
2018-07-13T07:53:07.072Z,80.55
2018-07-13T07:55:37.214Z,80.44
2018-07-13T07:58:07.433Z,77.05
2018-07-13T08:00:37.392Z,76.09
2018-07-13T08:03:07.452Z,74.92
2018-07-13T08:05:37.563Z,73.90
2018-07-13T08:08:07.473Z,72.53
2018-07-13T08:10:38.372Z,71.79
2018-07-13T08:13:12.135Z,68.43
2018-07-13T08:15:42.973Z,67.71
2018-07-13T08:18:12.662Z,65.43
2018-07-13T08:20:47.621Z,65.67
2018-07-13T08:23:17.922Z,67.56
2018-07-13T08:25:50.591Z,64.10
2018-07-13T08:28:20.441Z,64.99
2018-07-13T08:30:54.660Z,65.02
2018-07-13T08:33:24.315Z,64.84
2018-07-13T08:35:54.184Z,65.57
2018-07-13T08:38:23.911Z,64.23
2018-07-13T08:40:53.780Z,63.94
2018-07-13T08:43:23.480Z,63.47
2018-07-13T08:45:53.334Z,64.50
2018-07-13T08:48:22.950Z,65.38
2018-07-13T08:50:52.913Z,64.40
2018-07-13T08:53:23.064Z,65.15
2018-07-13T08:55:54.110Z,64.97
2018-07-13T08:58:24.321Z,65.55
2018-07-13T09:00:54.391Z,63.96
2018-07-13T09:03:24.431Z,63.47
2018-07-13T09:05:54.209Z,62.71
2018-07-13T09:08:24.082Z,62.97
2018-07-13T09:10:53.839Z,62.43
2018-07-13T09:13:23.682Z,62.85
2018-07-13T09:15:53.591Z,61.85
2018-07-13T09:18:23.416Z,61.23
2018-07-13T09:20:53.040Z,60.60
2018-07-13T09:23:23.134Z,61.66
2018-07-13T09:25:53.022Z,61.62
2018-07-13T09:28:22.851Z,60.60
2018-07-13T09:30:52.751Z,61.31
2018-07-13T09:33:22.631Z,62.60
2018-07-13T09:35:52.553Z,63.17
2018-07-13T09:38:22.945Z,63.00
2018-07-13T09:40:53.350Z,64.47
2018-07-13T09:43:23.212Z,64.41
2018-07-13T09:45:54.023Z,63.64
2018-07-13T09:48:23.772Z,64.73
2018-07-13T09:50:53.471Z,65.41
2018-07-13T09:53:23.491Z,66.30
2018-07-13T09:55:53.031Z,67.64
2018-07-13T09:58:31.802Z,66.45
2018-07-13T10:01:06.691Z,64.79
2018-07-13T10:03:39.177Z,64.68
2018-07-13T10:06:09.186Z,65.44
2018-07-13T10:08:39.032Z,64.25
2018-07-13T10:11:08.660Z,63.99
2018-07-13T10:13:38.371Z,63.62
2018-07-13T10:16:08.219Z,64.06
2018-07-13T10:18:38.069Z,64.82
2018-07-13T10:21:08.815Z,65.14
2018-07-13T10:23:39.511Z,65.14
2018-07-13T10:26:13.790Z,65.78
2018-07-13T10:28:43.731Z,65.65
2018-07-13T10:31:14.771Z,65.25
2018-07-13T10:33:44.859Z,65.57
2018-07-13T10:36:18.461Z,64.57
2018-07-13T10:38:48.295Z,63.63
2018-07-13T10:41:18.052Z,60.78
2018-07-13T10:43:47.892Z,61.72
2018-07-13T10:46:17.363Z,61.18
2018-07-13T10:48:46.903Z,61.20
2018-07-13T10:51:16.549Z,62.40
2018-07-13T10:53:46.456Z,62.30
2018-07-13T10:56:16.152Z,63.55
2018-07-13T10:58:46.057Z,65.14
2018-07-13T11:01:16.003Z,63.77
2018-07-13T11:03:45.984Z,63.62
2018-07-13T11:06:15.872Z,60.56
2018-07-13T11:08:45.714Z,58.15
2018-07-13T11:11:15.484Z,57.60
2018-07-13T11:13:45.376Z,58.21
2018-07-13T11:16:15.248Z,59.53
2018-07-13T11:18:45.933Z,59.34
2018-07-13T11:21:15.784Z,60.20
2018-07-13T11:23:45.590Z,61.24
2018-07-13T11:26:15.623Z,63.03
2018-07-13T11:28:45.493Z,64.46
2018-07-13T11:31:15.534Z,62.76
2018-07-13T11:33:45.323Z,61.07
2018-07-13T11:36:15.251Z,60.14
2018-07-13T11:38:45.189Z,60.64
2018-07-13T11:41:14.960Z,62.16
2018-07-13T11:43:44.736Z,60.99
2018-07-13T11:46:14.621Z,63.30
2018-07-13T11:48:44.153Z,65.35
2018-07-13T11:51:14.255Z,68.89
2018-07-13T11:53:44.059Z,72.80
2018-07-13T11:56:14.043Z,73.67
2018-07-13T11:58:43.932Z,73.63
2018-07-13T12:01:13.752Z,75.93
2018-07-13T12:03:43.612Z,75.56
2018-07-13T12:06:13.622Z,70.38
2018-07-13T12:08:43.235Z,71.07
2018-07-13T12:11:12.983Z,71.74
2018-07-13T12:13:43.543Z,72.83
2018-07-13T12:16:13.142Z,75.38
2018-07-13T12:18:42.953Z,75.84
2018-07-13T12:21:12.923Z,77.48
2018-07-13T12:23:42.714Z,78.59
2018-07-13T12:26:12.872Z,77.84
2018-07-13T12:28:42.573Z,78.78
2018-07-13T12:31:12.452Z,81.70
2018-07-13T12:33:42.113Z,83.08
2018-07-13T12:36:13.101Z,81.67
2018-07-13T12:38:43.051Z,81.87
2018-07-13T12:41:12.742Z,82.85
2018-07-13T12:43:42.331Z,84.22
2018-07-13T12:46:11.931Z,87.19
2018-07-13T12:48:41.793Z,87.60
2018-07-13T12:51:11.493Z,88.11
2018-07-13T12:53:42.431Z,88.85
2018-07-13T12:56:12.363Z,84.36
2018-07-13T12:58:42.881Z,80.40
2018-07-13T13:01:12.923Z,73.70
2018-07-13T13:03:42.715Z,71.40
2018-07-13T13:06:12.453Z,68.13
2018-07-13T13:08:42.280Z,64.84
2018-07-13T13:11:12.292Z,60.50
2018-07-13T13:13:42.094Z,57.73
2018-07-13T13:16:12.062Z,59.69
2018-07-13T13:18:41.633Z,62.43
2018-07-13T13:21:11.461Z,65.18
2018-07-13T13:23:41.474Z,67.50
2018-07-13T13:26:11.609Z,70.91
2018-07-13T13:28:41.572Z,77.46
2018-07-13T13:31:11.482Z,80.44
2018-07-13T13:33:41.522Z,78.18
2018-07-13T13:36:11.311Z,82.89
2018-07-13T13:38:41.171Z,82.06
2018-07-13T13:41:10.942Z,83.33
2018-07-13T13:43:40.551Z,80.21
2018-07-13T13:46:10.171Z,75.62
2018-07-13T13:48:40.003Z,70.67
2018-07-13T13:51:10.800Z,68.16
2018-07-13T13:53:40.907Z,63.74
2018-07-13T13:56:10.810Z,56.87
2018-07-13T13:58:40.910Z,57.09
2018-07-13T14:01:10.610Z,58.35
2018-07-13T14:03:40.432Z,59.08
2018-07-13T14:06:10.133Z,59.73
2018-07-13T14:08:39.792Z,60.41
2018-07-13T14:11:09.690Z,60.22
2018-07-13T14:13:39.425Z,60.95
2018-07-13T14:16:09.360Z,62.13
2018-07-13T14:18:39.097Z,60.41
2018-07-13T14:21:11.861Z,62.05
2018-07-13T14:23:42.197Z,59.98
2018-07-13T14:26:11.990Z,60.90
2018-07-13T14:28:41.920Z,58.22
2018-07-13T14:31:11.801Z,57.64
2018-07-13T14:33:41.509Z,59.72
2018-07-13T14:36:11.360Z,58.23
2018-07-13T14:38:40.880Z,59.06
2018-07-13T14:41:10.622Z,59.10
2018-07-13T14:43:40.250Z,60.87
2018-07-13T14:46:10.151Z,60.74
2018-07-13T14:48:39.813Z,63.28
2018-07-13T14:51:09.961Z,61.67
2018-07-13T14:53:39.624Z,77.92
2018-07-13T14:56:09.450Z,80.85
2018-07-13T14:58:39.298Z,85.63
2018-07-13T15:01:08.879Z,91.04
2018-07-13T15:03:38.429Z,96.55
2018-07-13T15:06:08.397Z,98.87
2018-07-13T15:08:37.888Z,99.57
2018-07-13T15:11:07.669Z,100.00
2018-07-13T15:13:37.539Z,100.00
2018-07-13T15:16:07.418Z,99.66
2018-07-13T15:18:37.289Z,97.60
2018-07-13T15:21:07.160Z,93.71
2018-07-13T15:23:37.908Z,88.83
2018-07-13T15:26:07.516Z,83.00
2018-07-13T15:28:38.173Z,83.53
2018-07-13T15:31:07.433Z,79.25
2018-07-13T15:33:37.040Z,80.01
2018-07-13T15:36:06.892Z,83.56
2018-07-13T15:38:36.324Z,84.31
2018-07-13T15:41:06.105Z,84.28
2018-07-13T15:43:35.585Z,84.34
2018-07-13T15:46:04.984Z,80.95
2018-07-13T15:48:34.366Z,82.02
2018-07-13T15:51:03.955Z,85.19
2018-07-13T15:53:33.364Z,80.87
2018-07-13T15:56:03.057Z,79.80
2018-07-13T15:58:32.438Z,78.10
2018-07-13T16:01:01.845Z,73.25
2018-07-13T16:03:31.341Z,68.38
2018-07-13T16:06:01.000Z,67.19
2018-07-13T16:08:30.554Z,69.45
2018-07-13T16:11:00.145Z,69.99
2018-07-13T16:13:29.991Z,73.98
2018-07-13T16:15:59.613Z,75.40
2018-07-13T16:18:29.274Z,76.62
2018-07-13T16:20:58.904Z,78.01
2018-07-13T16:23:28.430Z,80.86
2018-07-13T16:25:59.129Z,80.68
2018-07-13T16:28:28.653Z,80.65
2018-07-13T16:30:58.234Z,81.60
2018-07-13T16:33:27.700Z,83.76
2018-07-13T16:35:57.142Z,84.39
2018-07-13T16:38:26.602Z,85.34
2018-07-13T16:40:56.124Z,84.08
2018-07-13T16:43:25.631Z,86.81
2018-07-13T16:45:55.312Z,87.44
2018-07-13T16:48:24.794Z,88.47
2018-07-13T16:50:54.436Z,90.20
2018-07-13T16:53:24.030Z,88.12
2018-07-13T16:55:53.479Z,87.70
2018-07-13T16:58:22.921Z,87.42
2018-07-13T17:00:52.321Z,87.90
2018-07-13T17:03:22.911Z,85.70
2018-07-13T17:05:52.235Z,84.86
2018-07-13T17:08:21.763Z,85.13
2018-07-13T17:10:51.205Z,86.16
2018-07-13T17:13:20.834Z,84.25
2018-07-13T17:15:50.252Z,84.63
2018-07-13T17:18:19.729Z,86.73
2018-07-13T17:20:49.344Z,88.71
2018-07-13T17:23:18.799Z,90.20
2018-07-13T17:25:48.301Z,88.86
2018-07-13T17:28:17.868Z,87.84
2018-07-13T17:30:47.482Z,88.93
2018-07-13T17:33:17.044Z,88.50
2018-07-13T17:35:46.721Z,89.83
2018-07-13T17:38:16.215Z,88.62
2018-07-13T17:40:45.691Z,89.05
2018-07-13T17:43:15.089Z,89.50
2018-07-13T17:45:44.516Z,91.01
2018-07-13T17:48:13.995Z,89.01
2018-07-13T17:50:44.544Z,88.71
2018-07-13T17:53:13.941Z,89.00
2018-07-13T17:55:43.599Z,90.09
2018-07-13T17:58:12.896Z,90.21
2018-07-13T18:00:42.364Z,91.08
2018-07-13T18:03:11.783Z,91.91
2018-07-13T18:05:41.437Z,92.35
2018-07-13T18:08:10.931Z,91.44
2018-07-13T18:10:40.412Z,91.19
2018-07-13T18:13:10.105Z,91.31
2018-07-13T18:15:39.866Z,90.52
2018-07-13T18:18:09.367Z,89.43
2018-07-13T18:20:38.956Z,89.81
2018-07-13T18:23:08.579Z,88.96
2018-07-13T18:25:38.086Z,87.94
2018-07-13T18:28:07.736Z,88.76
2018-07-13T18:30:37.526Z,89.23
2018-07-13T18:33:08.063Z,90.08
2018-07-13T18:35:37.620Z,89.71
2018-07-13T18:38:07.052Z,89.51
2018-07-13T18:40:36.711Z,89.64
2018-07-13T18:43:06.195Z,89.44
2018-07-13T18:45:35.865Z,90.86
2018-07-13T18:48:05.423Z,92.00
2018-07-13T18:50:35.039Z,91.75
2018-07-13T18:53:04.556Z,92.03
2018-07-13T18:55:34.148Z,92.07
2018-07-13T18:58:03.839Z,91.60
2018-07-13T19:00:33.289Z,91.82
2018-07-13T19:03:02.879Z,91.77
2018-07-13T19:05:32.339Z,91.81
2018-07-13T19:08:01.801Z,91.29
2018-07-13T19:10:31.435Z,91.77
2018-07-13T19:13:00.865Z,91.68
2018-07-13T19:15:30.400Z,92.18
2018-07-13T19:17:59.966Z,92.15
2018-07-13T19:20:29.467Z,92.10
2018-07-13T19:22:58.806Z,91.59
2018-07-13T19:25:29.370Z,91.82
2018-07-13T19:27:59.960Z,91.53
2018-07-13T19:30:29.291Z,91.24
2018-07-13T19:32:58.762Z,91.49
2018-07-13T19:35:28.226Z,91.47
2018-07-13T19:37:57.748Z,91.29
2018-07-13T19:40:27.161Z,91.72
2018-07-13T19:42:56.763Z,91.48
2018-07-13T19:45:26.387Z,91.65
2018-07-13T19:47:55.995Z,91.59
2018-07-13T19:50:25.526Z,91.70
2018-07-13T19:52:55.021Z,91.77
2018-07-13T19:55:27.497Z,91.82
2018-07-13T19:57:56.969Z,92.02
2018-07-13T20:00:26.401Z,92.46
2018-07-13T20:02:55.801Z,92.77
2018-07-13T20:05:25.341Z,92.71
2018-07-13T20:07:54.852Z,93.18
2018-07-13T20:10:24.405Z,93.48
2018-07-13T20:12:54.138Z,93.51
2018-07-13T20:15:23.635Z,93.46
2018-07-13T20:17:53.156Z,93.54
2018-07-13T20:20:22.669Z,93.25
2018-07-13T20:22:52.148Z,93.79
2018-07-13T20:25:22.599Z,93.90
2018-07-13T20:27:52.087Z,93.89
2018-07-13T20:30:21.607Z,93.23
2018-07-13T20:32:51.330Z,93.63
2018-07-13T20:35:20.787Z,92.88
2018-07-13T20:37:50.274Z,93.08
2018-07-13T20:40:20.727Z,93.85
2018-07-13T20:42:50.245Z,93.17
2018-07-13T20:45:19.826Z,92.79
2018-07-13T20:47:49.190Z,92.25
2018-07-13T20:50:18.848Z,91.62
2018-07-13T20:52:48.352Z,91.16
2018-07-13T20:55:17.977Z,90.56
2018-07-13T20:57:48.583Z,90.58
2018-07-13T21:00:18.253Z,90.06
2018-07-13T21:02:47.760Z,89.11
2018-07-13T21:05:17.182Z,89.59
2018-07-13T21:07:46.628Z,90.84
2018-07-13T21:10:16.306Z,91.89
2018-07-13T21:12:45.765Z,91.74
2018-07-13T21:15:15.393Z,92.10
2018-07-13T21:17:44.837Z,92.48
2018-07-13T21:20:14.431Z,93.04
2018-07-13T21:22:44.009Z,92.62
2018-07-13T21:25:13.600Z,91.81
2018-07-13T21:27:43.170Z,91.77
2018-07-13T21:30:12.688Z,90.72
2018-07-13T21:32:42.168Z,90.84
2018-07-13T21:35:11.541Z,91.20
2018-07-13T21:37:41.735Z,91.21
2018-07-13T21:40:11.247Z,91.06
2018-07-13T21:42:41.730Z,91.49
2018-07-13T21:45:11.489Z,91.29
2018-07-13T21:47:40.799Z,91.76
2018-07-13T21:50:10.352Z,91.67
2018-07-13T21:52:39.749Z,91.88
2018-07-13T21:55:09.176Z,91.71
2018-07-13T21:57:38.692Z,91.83
2018-07-13T22:00:08.500Z,91.84
2018-07-13T22:02:37.913Z,91.71
2018-07-13T22:05:07.378Z,91.77
2018-07-13T22:07:36.866Z,91.81
2018-07-13T22:10:06.474Z,91.99
2018-07-13T22:12:36.226Z,92.13
2018-07-13T22:15:05.938Z,92.41
2018-07-13T22:17:35.429Z,92.28
2018-07-13T22:20:05.089Z,92.37
2018-07-13T22:22:34.602Z,93.23
2018-07-13T22:25:03.998Z,93.48
2018-07-13T22:27:33.564Z,93.55
2018-07-13T22:30:03.373Z,93.33
2018-07-13T22:32:32.793Z,94.26
2018-07-13T22:35:02.340Z,93.61
2018-07-13T22:37:31.814Z,94.17
2018-07-13T22:40:01.166Z,94.04
2018-07-13T22:42:30.537Z,94.06
2018-07-13T22:44:59.977Z,94.32
2018-07-13T22:47:29.506Z,93.92
2018-07-13T22:49:58.847Z,93.75
2018-07-13T22:52:28.460Z,94.18
2018-07-13T22:54:57.929Z,94.13
2018-07-13T22:57:27.312Z,94.57
2018-07-13T22:59:57.054Z,94.24
2018-07-13T23:02:26.371Z,94.10
2018-07-13T23:04:55.895Z,93.94
2018-07-13T23:07:26.463Z,94.00
2018-07-13T23:09:55.935Z,93.64
2018-07-13T23:12:25.393Z,93.26
2018-07-13T23:14:54.828Z,93.99
2018-07-13T23:17:25.135Z,93.74
2018-07-13T23:19:55.691Z,93.64
2018-07-13T23:22:25.140Z,93.96
2018-07-13T23:24:54.634Z,93.78
2018-07-13T23:27:24.193Z,93.42
2018-07-13T23:29:53.630Z,93.72
2018-07-13T23:32:22.944Z,94.01
2018-07-13T23:34:52.514Z,94.10
2018-07-13T23:37:21.951Z,93.43
2018-07-13T23:39:51.487Z,93.73
2018-07-13T23:42:20.875Z,93.98
2018-07-13T23:44:50.265Z,94.59
2018-07-13T23:47:19.827Z,94.96
2018-07-13T23:49:49.217Z,94.91
2018-07-13T23:52:18.794Z,94.70
2018-07-13T23:54:48.317Z,95.15
2018-07-13T23:57:17.849Z,95.28
2018-07-13T23:59:47.383Z,95.14
